sensor_id;sensor_type;location;lat;lon;timestamp;pressure;altitude;pressure_sealevel;temperature;humidity
25855;BME280;13680;49.936;11.344;2023-02-10T00:01:13;98417.03;;;-4.42;67.45
25855;BME280;13680;49.936;11.344;2023-02-10T00:03:39;98425.06;;;-4.44;67.63
25855;BME280;13680;49.936;11.344;2023-02-10T00:06:06;98428.00;;;-4.47;67.33
25855;BME280;13680;49.936;11.344;2023-02-10T00:08:32;98419.13;;;-4.46;67.43
25855;BME280;13680;49.936;11.344;2023-02-10T00:11:03;98415.03;;;-4.48;67.89
25855;BME280;13680;49.936;11.344;2023-02-10T00:13:30;98418.00;;;-4.51;67.40
25855;BME280;13680;49.936;11.344;2023-02-10T00:16:00;98424.88;;;-4.58;67.93
25855;BME280;13680;49.936;11.344;2023-02-10T00:18:26;98421.72;;;-4.62;68.08
25855;BME280;13680;49.936;11.344;2023-02-10T00:20:51;98420.09;;;-4.63;67.95
25855;BME280;13680;49.936;11.344;2023-02-10T00:23:17;98428.97;;;-4.64;68.10
25855;BME280;13680;49.936;11.344;2023-02-10T00:25:42;98415.84;;;-4.64;68.27
25855;BME280;13680;49.936;11.344;2023-02-10T00:28:08;98415.84;;;-4.64;67.11
25855;BME280;13680;49.936;11.344;2023-02-10T00:30:33;98417.13;;;-4.77;67.89
25855;BME280;13680;49.936;11.344;2023-02-10T00:32:59;98415.47;;;-4.78;68.35
25855;BME280;13680;49.936;11.344;2023-02-10T00:35:24;98419.75;;;-4.77;67.91
25855;BME280;13680;49.936;11.344;2023-02-10T00:37:50;98421.84;;;-4.80;68.10
25855;BME280;13680;49.936;11.344;2023-02-10T00:40:16;98432.19;;;-4.79;68.11
25855;BME280;13680;49.936;11.344;2023-02-10T00:42:41;98425.97;;;-4.78;68.14
25855;BME280;13680;49.936;11.344;2023-02-10T00:45:07;98425.66;;;-4.74;67.71
25855;BME280;13680;49.936;11.344;2023-02-10T00:47:32;98432.06;;;-4.77;67.53
25855;BME280;13680;49.936;11.344;2023-02-10T00:49:58;98434.47;;;-4.84;68.12
25855;BME280;13680;49.936;11.344;2023-02-10T00:52:23;98446.59;;;-4.91;68.19
25855;BME280;13680;49.936;11.344;2023-02-10T00:54:49;98451.84;;;-4.91;67.46
25855;BME280;13680;49.936;11.344;2023-02-10T00:57:14;98451.84;;;-4.91;68.15
25855;BME280;13680;49.936;11.344;2023-02-10T00:59:40;98442.97;;;-4.90;67.63
25855;BME280;13680;49.936;11.344;2023-02-10T01:02:05;98457.56;;;-4.96;67.64
25855;BME280;13680;49.936;11.344;2023-02-10T01:04:31;98456.41;;;-5.01;68.43
25855;BME280;13680;49.936;11.344;2023-02-10T01:06:56;98465.06;;;-5.01;68.27
25855;BME280;13680;49.936;11.344;2023-02-10T01:09:22;98473.28;;;-4.96;68.00
25855;BME280;13680;49.936;11.344;2023-02-10T01:11:47;98473.28;;;-5.04;68.09
25855;BME280;13680;49.936;11.344;2023-02-10T01:14:13;98481.50;;;-4.99;68.16
25855;BME280;13680;49.936;11.344;2023-02-10T01:16:38;98486.88;;;-5.00;68.00
25855;BME280;13680;49.936;11.344;2023-02-10T01:19:03;98474.44;;;-4.98;68.16
25855;BME280;13680;49.936;11.344;2023-02-10T01:21:29;98474.38;;;-5.06;68.28
25855;BME280;13680;49.936;11.344;2023-02-10T01:23:55;98476.34;;;-5.08;68.33
25855;BME280;13680;49.936;11.344;2023-02-10T01:26:20;98471.72;;;-5.15;68.64
25855;BME280;13680;49.936;11.344;2023-02-10T01:28:46;98477.31;;;-5.10;68.63
25855;BME280;13680;49.936;11.344;2023-02-10T01:31:14;98484.75;;;-5.05;68.00
25855;BME280;13680;49.936;11.344;2023-02-10T01:33:40;98479.13;;;-5.10;68.38
25855;BME280;13680;49.936;11.344;2023-02-10T01:36:09;98475.03;;;-5.13;68.03
25855;BME280;13680;49.936;11.344;2023-02-10T01:38:35;98477.78;;;-5.14;68.08
25855;BME280;13680;49.936;11.344;2023-02-10T01:41:01;98477.44;;;-5.19;68.06
25855;BME280;13680;49.936;11.344;2023-02-10T01:43:27;98475.47;;;-5.17;67.80
25855;BME280;13680;49.936;11.344;2023-02-10T01:45:52;98483.16;;;-5.24;68.12
25855;BME280;13680;49.936;11.344;2023-02-10T01:48:17;98474.63;;;-5.26;67.98
25855;BME280;13680;49.936;11.344;2023-02-10T01:50:52;98475.59;;;-5.27;68.74
25855;BME280;13680;49.936;11.344;2023-02-10T01:53:18;98481.84;;;-5.28;67.72
25855;BME280;13680;49.936;11.344;2023-02-10T01:55:47;98478.56;;;-5.22;68.47
25855;BME280;13680;49.936;11.344;2023-02-10T01:58:17;98493.13;;;-5.28;67.07
25855;BME280;13680;49.936;11.344;2023-02-10T02:00:43;98475.56;;;-5.35;67.51
25855;BME280;13680;49.936;11.344;2023-02-10T02:03:09;98470.59;;;-5.38;67.55
25855;BME280;13680;49.936;11.344;2023-02-10T02:05:37;98478.63;;;-5.40;68.07
25855;BME280;13680;49.936;11.344;2023-02-10T02:08:07;98484.38;;;-5.36;68.44
25855;BME280;13680;49.936;11.344;2023-02-10T02:10:54;98479.47;;;-5.39;68.08
25855;BME280;13680;49.936;11.344;2023-02-10T02:18:55;98488.56;;;-5.52;68.08
25855;BME280;13680;49.936;11.344;2023-02-10T02:34:46;98478.06;;;-5.52;68.83
25855;BME280;13680;49.936;11.344;2023-02-10T02:37:33;98477.53;;;-5.55;68.00
25855;BME280;13680;49.936;11.344;2023-02-10T02:40:01;98479.00;;;-5.61;69.09
25855;BME280;13680;49.936;11.344;2023-02-10T02:42:32;98477.78;;;-5.67;68.63
25855;BME280;13680;49.936;11.344;2023-02-10T02:45:04;98484.16;;;-5.69;68.25
25855;BME280;13680;49.936;11.344;2023-02-10T02:47:36;98484.53;;;-5.64;67.74
25855;BME280;13680;49.936;11.344;2023-02-10T02:50:17;98489.75;;;-5.64;67.85
25855;BME280;13680;49.936;11.344;2023-02-10T02:55:35;98479.75;;;-5.69;68.13
25855;BME280;13680;49.936;11.344;2023-02-10T02:58:25;98480.56;;;-5.68;68.53
25855;BME280;13680;49.936;11.344;2023-02-10T03:00:52;98486.25;;;-5.73;68.00
25855;BME280;13680;49.936;11.344;2023-02-10T03:03:20;98483.78;;;-5.75;68.38
25855;BME280;13680;49.936;11.344;2023-02-10T03:05:45;98486.41;;;-5.75;67.79
25855;BME280;13680;49.936;11.344;2023-02-10T03:08:11;98491.66;;;-5.75;68.42
25855;BME280;13680;49.936;11.344;2023-02-10T03:10:36;98485.06;;;-5.79;67.50
25855;BME280;13680;49.936;11.344;2023-02-10T03:13:01;98493.59;;;-5.77;68.16
25855;BME280;13680;49.936;11.344;2023-02-10T03:15:27;98491.13;;;-5.78;67.23
25855;BME280;13680;49.936;11.344;2023-02-10T03:17:52;98485.38;;;-5.82;67.55
25855;BME280;13680;49.936;11.344;2023-02-10T03:20:17;98484.03;;;-5.86;67.42
25855;BME280;13680;49.936;11.344;2023-02-10T03:22:43;98489.09;;;-5.84;67.84
25855;BME280;13680;49.936;11.344;2023-02-10T03:25:09;98490.25;;;-5.87;68.25
25855;BME280;13680;49.936;11.344;2023-02-10T03:27:34;98493.38;;;-5.83;67.44
25855;BME280;13680;49.936;11.344;2023-02-10T03:30:00;98486.00;;;-5.88;67.44
25855;BME280;13680;49.936;11.344;2023-02-10T03:32:25;98493.78;;;-5.96;68.24
25855;BME280;13680;49.936;11.344;2023-02-10T03:34:50;98491.63;;;-6.01;68.18
25855;BME280;13680;49.936;11.344;2023-02-10T03:37:16;98492.13;;;-5.97;68.35
25855;BME280;13680;49.936;11.344;2023-02-10T03:39:41;98497.34;;;-5.97;68.11
25855;BME280;13680;49.936;11.344;2023-02-10T03:42:06;98498.03;;;-5.95;67.98
25855;BME280;13680;49.936;11.344;2023-02-10T03:44:32;98499.63;;;-6.02;67.83
25855;BME280;13680;49.936;11.344;2023-02-10T03:46:57;98500.22;;;-6.09;68.11
25855;BME280;13680;49.936;11.344;2023-02-10T03:49:23;98496.34;;;-6.04;67.26
25855;BME280;13680;49.936;11.344;2023-02-10T03:51:48;98498.28;;;-6.06;67.51
25855;BME280;13680;49.936;11.344;2023-02-10T03:54:13;98504.34;;;-6.06;67.49
25855;BME280;13680;49.936;11.344;2023-02-10T03:56:39;98505.78;;;-6.12;67.45
25855;BME280;13680;49.936;11.344;2023-02-10T03:59:04;98503.84;;;-6.10;68.64
25855;BME280;13680;49.936;11.344;2023-02-10T04:01:30;98502.84;;;-6.09;68.12
25855;BME280;13680;49.936;11.344;2023-02-10T04:03:55;98507.97;;;-6.07;67.42
25855;BME280;13680;49.936;11.344;2023-02-10T04:06:21;98512.66;;;-6.11;68.36
25855;BME280;13680;49.936;11.344;2023-02-10T04:08:47;98512.94;;;-6.14;69.06
25855;BME280;13680;49.936;11.344;2023-02-10T04:11:13;98515.44;;;-6.12;68.46
25855;BME280;13680;49.936;11.344;2023-02-10T04:13:39;98514.06;;;-6.16;68.43
25855;BME280;13680;49.936;11.344;2023-02-10T04:16:06;98514.91;;;-6.16;68.22
25855;BME280;13680;49.936;11.344;2023-02-10T04:18:32;98515.19;;;-6.19;68.75
25855;BME280;13680;49.936;11.344;2023-02-10T04:20:58;98520.44;;;-6.19;67.89
25855;BME280;13680;49.936;11.344;2023-02-10T04:23:26;98524.16;;;-6.21;67.76
25855;BME280;13680;49.936;11.344;2023-02-10T04:25:52;98531.91;;;-6.20;68.18
25855;BME280;13680;49.936;11.344;2023-02-10T04:28:18;98528.97;;;-6.17;67.65
25855;BME280;13680;49.936;11.344;2023-02-10T04:30:43;98536.06;;;-6.27;68.14
25855;BME280;13680;49.936;11.344;2023-02-10T04:33:09;98539.28;;;-6.33;67.01
25855;BME280;13680;49.936;11.344;2023-02-10T04:35:34;98544.13;;;-6.38;67.94
25855;BME280;13680;49.936;11.344;2023-02-10T04:37:59;98534.34;;;-6.36;68.26
25855;BME280;13680;49.936;11.344;2023-02-10T04:40:29;98531.41;;;-6.33;66.76
25855;BME280;13680;49.936;11.344;2023-02-10T04:42:54;98541.34;;;-6.37;67.92
25855;BME280;13680;49.936;11.344;2023-02-10T04:45:20;98548.94;;;-6.34;67.08
25855;BME280;13680;49.936;11.344;2023-02-10T04:47:45;98544.94;;;-6.38;68.24
25855;BME280;13680;49.936;11.344;2023-02-10T04:50:10;98560.63;;;-6.38;67.14
25855;BME280;13680;49.936;11.344;2023-02-10T04:52:35;98562.59;;;-6.40;68.34
25855;BME280;13680;49.936;11.344;2023-02-10T04:55:01;98558.84;;;-6.37;68.15
25855;BME280;13680;49.936;11.344;2023-02-10T04:57:26;98558.16;;;-6.39;67.41
25855;BME280;13680;49.936;11.344;2023-02-10T04:59:51;98558.84;;;-6.37;67.15
25855;BME280;13680;49.936;11.344;2023-02-10T05:02:17;98543.81;;;-6.35;68.29
25855;BME280;13680;49.936;11.344;2023-02-10T05:04:42;98551.66;;;-6.35;67.77
25855;BME280;13680;49.936;11.344;2023-02-10T05:07:08;98559.53;;;-6.35;67.49
25855;BME280;13680;49.936;11.344;2023-02-10T05:09:33;98563.31;;;-6.48;67.64
25855;BME280;13680;49.936;11.344;2023-02-10T05:11:58;98570.22;;;-6.47;68.61
25855;BME280;13680;49.936;11.344;2023-02-10T05:14:24;98577.03;;;-6.36;69.04
25855;BME280;13680;49.936;11.344;2023-02-10T05:16:49;98575.22;;;-6.35;68.03
25855;BME280;13680;49.936;11.344;2023-02-10T05:19:14;98584.50;;;-6.41;68.65
25855;BME280;13680;49.936;11.344;2023-02-10T05:21:39;98577.63;;;-6.42;68.40
25855;BME280;13680;49.936;11.344;2023-02-10T05:24:05;98581.97;;;-6.33;68.30
25855;BME280;13680;49.936;11.344;2023-02-10T05:26:30;98584.47;;;-6.31;68.83
25855;BME280;13680;49.936;11.344;2023-02-10T05:28:56;98590.19;;;-6.28;69.37
25855;BME280;13680;49.936;11.344;2023-02-10T05:31:21;98584.16;;;-6.28;68.66
25855;BME280;13680;49.936;11.344;2023-02-10T05:33:46;98582.50;;;-6.29;69.80
25855;BME280;13680;49.936;11.344;2023-02-10T05:36:12;98579.41;;;-6.15;70.52
25855;BME280;13680;49.936;11.344;2023-02-10T05:38:37;98579.63;;;-6.08;69.30
25855;BME280;13680;49.936;11.344;2023-02-10T05:41:03;98576.56;;;-6.03;69.18
25855;BME280;13680;49.936;11.344;2023-02-10T05:43:28;98569.38;;;-6.01;69.39
25855;BME280;13680;49.936;11.344;2023-02-10T05:45:53;98581.56;;;-5.92;70.00
25855;BME280;13680;49.936;11.344;2023-02-10T05:48:19;98582.56;;;-5.93;68.92
25855;BME280;13680;49.936;11.344;2023-02-10T05:50:44;98580.31;;;-5.88;69.35
25855;BME280;13680;49.936;11.344;2023-02-10T05:53:09;98583.75;;;-5.87;69.07
25855;BME280;13680;49.936;11.344;2023-02-10T05:55:35;98583.75;;;-5.87;70.07
25855;BME280;13680;49.936;11.344;2023-02-10T05:58:00;98592.13;;;-5.84;70.28
25855;BME280;13680;49.936;11.344;2023-02-10T06:00:26;98603.81;;;-5.78;69.85
25855;BME280;13680;49.936;11.344;2023-02-10T06:02:51;98602.69;;;-5.76;69.60
25855;BME280;13680;49.936;11.344;2023-02-10T06:05:17;98596.84;;;-5.69;69.06
25855;BME280;13680;49.936;11.344;2023-02-10T06:07:42;98587.47;;;-5.72;68.57
25855;BME280;13680;49.936;11.344;2023-02-10T06:10:07;98598.66;;;-5.70;69.36
25855;BME280;13680;49.936;11.344;2023-02-10T06:12:33;98599.69;;;-5.63;69.17
25855;BME280;13680;49.936;11.344;2023-02-10T06:14:58;98602.19;;;-5.61;68.96
25855;BME280;13680;49.936;11.344;2023-02-10T06:17:24;98605.22;;;-5.66;69.25
25855;BME280;13680;49.936;11.344;2023-02-10T06:19:51;98605.97;;;-5.55;70.04
25855;BME280;13680;49.936;11.344;2023-02-10T06:22:16;98613.41;;;-5.51;69.34
25855;BME280;13680;49.936;11.344;2023-02-10T06:24:41;98614.75;;;-5.47;69.73
25855;BME280;13680;49.936;11.344;2023-02-10T06:27:07;98620.69;;;-5.45;69.56
25855;BME280;13680;49.936;11.344;2023-02-10T06:29:32;98622.66;;;-5.38;68.99
25855;BME280;13680;49.936;11.344;2023-02-10T06:31:57;98623.34;;;-5.36;69.63
25855;BME280;13680;49.936;11.344;2023-02-10T06:34:23;98627.31;;;-5.32;68.97
25855;BME280;13680;49.936;11.344;2023-02-10T06:36:48;98623.44;;;-5.28;68.73
25855;BME280;13680;49.936;11.344;2023-02-10T06:39:14;98632.41;;;-5.31;69.78
25855;BME280;13680;49.936;11.344;2023-02-10T06:41:39;98634.22;;;-5.31;69.93
25855;BME280;13680;49.936;11.344;2023-02-10T06:44:06;98645.38;;;-5.29;70.27
25855;BME280;13680;49.936;11.344;2023-02-10T06:46:31;98638.16;;;-5.09;69.71
25855;BME280;13680;49.936;11.344;2023-02-10T06:48:57;98645.91;;;-5.07;70.04
25855;BME280;13680;49.936;11.344;2023-02-10T06:51:24;98637.41;;;-5.01;69.50
25855;BME280;13680;49.936;11.344;2023-02-10T06:53:49;98639.41;;;-4.95;69.62
25855;BME280;13680;49.936;11.344;2023-02-10T06:56:15;98642.38;;;-4.90;69.83
25855;BME280;13680;49.936;11.344;2023-02-10T06:58:40;98640.59;;;-4.89;69.93
25855;BME280;13680;49.936;11.344;2023-02-10T07:01:16;98645.25;;;-4.83;69.93
25855;BME280;13680;49.936;11.344;2023-02-10T07:03:42;98647.19;;;-4.59;68.85
25855;BME280;13680;49.936;11.344;2023-02-10T07:06:07;98652.09;;;-4.64;69.03
25855;BME280;13680;49.936;11.344;2023-02-10T07:08:32;98646.31;;;-4.68;70.10
25855;BME280;13680;49.936;11.344;2023-02-10T07:10:58;98644.94;;;-4.54;70.64
25855;BME280;13680;49.936;11.344;2023-02-10T07:13:23;98655.22;;;-4.34;70.79
25855;BME280;13680;49.936;11.344;2023-02-10T07:15:48;98640.63;;;-4.29;70.94
25855;BME280;13680;49.936;11.344;2023-02-10T07:18:14;98644.25;;;-4.21;69.73
25855;BME280;13680;49.936;11.344;2023-02-10T07:20:39;98644.59;;;-4.16;70.62
25855;BME280;13680;49.936;11.344;2023-02-10T07:23:05;98639.88;;;-4.13;70.60
25855;BME280;13680;49.936;11.344;2023-02-10T07:25:30;98651.41;;;-4.05;70.52
25855;BME280;13680;49.936;11.344;2023-02-10T07:27:55;98651.94;;;-3.93;70.50
25855;BME280;13680;49.936;11.344;2023-02-10T07:30:21;98644.84;;;-3.93;71.10
25855;BME280;13680;49.936;11.344;2023-02-10T07:32:46;98642.78;;;-3.81;70.87
25855;BME280;13680;49.936;11.344;2023-02-10T07:35:11;98649.84;;;-3.73;71.19
25855;BME280;13680;49.936;11.344;2023-02-10T07:37:37;98647.41;;;-3.67;70.73
25855;BME280;13680;49.936;11.344;2023-02-10T07:40:03;98651.56;;;-3.56;71.08
25855;BME280;13680;49.936;11.344;2023-02-10T07:42:29;98657.44;;;-3.54;71.31
25855;BME280;13680;49.936;11.344;2023-02-10T07:44:54;98658.47;;;-3.47;71.82
25855;BME280;13680;49.936;11.344;2023-02-10T07:47:20;98654.53;;;-3.34;70.88
25855;BME280;13680;49.936;11.344;2023-02-10T07:49:45;98653.88;;;-3.28;71.67
25855;BME280;13680;49.936;11.344;2023-02-10T07:52:10;98647.28;;;-3.32;71.24
25855;BME280;13680;49.936;11.344;2023-02-10T07:54:36;98649.25;;;-3.18;71.04
25855;BME280;13680;49.936;11.344;2023-02-10T07:57:01;98658.00;;;-3.01;70.72
25855;BME280;13680;49.936;11.344;2023-02-10T07:59:27;98651.25;;;-2.95;71.29
25855;BME280;13680;49.936;11.344;2023-02-10T08:01:52;98661.28;;;-2.99;72.17
25855;BME280;13680;49.936;11.344;2023-02-10T08:04:18;98658.47;;;-2.89;71.23
25855;BME280;13680;49.936;11.344;2023-02-10T08:06:43;98643.16;;;-2.69;71.85
25855;BME280;13680;49.936;11.344;2023-02-10T08:09:08;98651.22;;;-2.62;71.40
25855;BME280;13680;49.936;11.344;2023-02-10T08:11:34;98651.22;;;-2.54;71.94
25855;BME280;13680;49.936;11.344;2023-02-10T08:14:01;98654.84;;;-2.55;71.82
25855;BME280;13680;49.936;11.344;2023-02-10T08:16:26;98663.19;;;-2.43;72.06
25855;BME280;13680;49.936;11.344;2023-02-10T08:18:52;98643.19;;;-2.21;71.81
25855;BME280;13680;49.936;11.344;2023-02-10T08:21:17;98653.72;;;-2.12;70.67
25855;BME280;13680;49.936;11.344;2023-02-10T08:23:42;98653.66;;;-2.04;71.60
25855;BME280;13680;49.936;11.344;2023-02-10T08:26:10;98656.91;;;-1.94;71.72
25855;BME280;13680;49.936;11.344;2023-02-10T08:28:36;98661.81;;;-1.83;70.72
25855;BME280;13680;49.936;11.344;2023-02-10T08:31:03;98671.81;;;-1.70;71.05
25855;BME280;13680;49.936;11.344;2023-02-10T08:33:29;98672.59;;;-1.61;70.68
25855;BME280;13680;49.936;11.344;2023-02-10T08:35:55;98673.25;;;-1.59;70.53
25855;BME280;13680;49.936;11.344;2023-02-10T08:38:20;98679.78;;;-1.46;71.22
25855;BME280;13680;49.936;11.344;2023-02-10T08:40:54;98681.00;;;-1.34;71.14
25855;BME280;13680;49.936;11.344;2023-02-10T08:43:20;98682.78;;;-1.26;70.98
25855;BME280;13680;49.936;11.344;2023-02-10T08:45:45;98686.66;;;-1.14;70.51
25855;BME280;13680;49.936;11.344;2023-02-10T08:48:10;98693.06;;;-1.08;70.40
25855;BME280;13680;49.936;11.344;2023-02-10T08:50:36;98699.28;;;-1.01;70.38
25855;BME280;13680;49.936;11.344;2023-02-10T08:53:01;98703.09;;;-1.04;70.32
25855;BME280;13680;49.936;11.344;2023-02-10T08:55:27;98694.75;;;-0.92;70.54
25855;BME280;13680;49.936;11.344;2023-02-10T08:57:52;98700.97;;;-0.85;69.52
25855;BME280;13680;49.936;11.344;2023-02-10T09:00:17;98696.31;;;-0.83;68.99
25855;BME280;13680;49.936;11.344;2023-02-10T09:02:43;98707.72;;;-0.83;68.82
25855;BME280;13680;49.936;11.344;2023-02-10T09:05:08;98706.56;;;-0.80;69.41
25855;BME280;13680;49.936;11.344;2023-02-10T09:07:33;98704.38;;;-0.76;69.09
25855;BME280;13680;49.936;11.344;2023-02-10T09:09:59;98707.66;;;-0.74;69.59
25855;BME280;13680;49.936;11.344;2023-02-10T09:12:24;98707.78;;;-0.53;68.71
25855;BME280;13680;49.936;11.344;2023-02-10T09:14:49;98703.06;;;-0.42;68.75
25855;BME280;13680;49.936;11.344;2023-02-10T09:17:14;98709.94;;;-0.33;68.24
25855;BME280;13680;49.936;11.344;2023-02-10T09:19:40;98709.84;;;-0.25;68.59
25855;BME280;13680;49.936;11.344;2023-02-10T09:22:07;98710.31;;;-0.21;68.47
25855;BME280;13680;49.936;11.344;2023-02-10T09:24:32;98701.09;;;-0.10;68.70
25855;BME280;13680;49.936;11.344;2023-02-10T09:26:59;98698.25;;;0.06;68.08
25855;BME280;13680;49.936;11.344;2023-02-10T09:29:25;98699.19;;;0.13;68.32
25855;BME280;13680;49.936;11.344;2023-02-10T09:31:50;98704.81;;;0.25;67.46
25855;BME280;13680;49.936;11.344;2023-02-10T09:34:16;98703.16;;;0.39;67.56
25855;BME280;13680;49.936;11.344;2023-02-10T09:36:41;98708.81;;;0.51;67.62
25855;BME280;13680;49.936;11.344;2023-02-10T09:39:07;98720.81;;;0.32;67.44
25855;BME280;13680;49.936;11.344;2023-02-10T09:44:25;98722.75;;;0.60;65.58
25855;BME280;13680;49.936;11.344;2023-02-10T09:49:48;98730.53;;;0.46;67.04
25855;BME280;13680;49.936;11.344;2023-02-10T09:52:40;98728.88;;;0.60;65.92
25855;BME280;13680;49.936;11.344;2023-02-10T09:55:16;98726.56;;;0.72;65.14
25855;BME280;13680;49.936;11.344;2023-02-10T09:57:55;98726.78;;;0.92;65.18
25855;BME280;13680;49.936;11.344;2023-02-10T10:02:55;98731.53;;;0.97;66.01
25855;BME280;13680;49.936;11.344;2023-02-10T10:05:41;98730.44;;;1.13;65.76
25855;BME280;13680;49.936;11.344;2023-02-10T10:08:23;98734.69;;;1.07;66.11
25855;BME280;13680;49.936;11.344;2023-02-10T10:10:49;98721.03;;;1.32;64.74
25855;BME280;13680;49.936;11.344;2023-02-10T10:13:27;98726.81;;;1.42;64.56
25855;BME280;13680;49.936;11.344;2023-02-10T10:21:46;98736.44;;;1.43;64.76
25855;BME280;13680;49.936;11.344;2023-02-10T10:27:27;98736.22;;;1.73;64.13
25855;BME280;13680;49.936;11.344;2023-02-10T10:30:20;98734.56;;;1.94;62.82
25855;BME280;13680;49.936;11.344;2023-02-10T10:32:58;98726.66;;;2.07;62.80
25855;BME280;13680;49.936;11.344;2023-02-10T10:35:35;98723.22;;;2.07;62.09
25855;BME280;13680;49.936;11.344;2023-02-10T10:38:12;98724.47;;;2.18;62.55
25855;BME280;13680;49.936;11.344;2023-02-10T10:40:38;98721.56;;;2.06;62.47
25855;BME280;13680;49.936;11.344;2023-02-10T10:43:13;98722.66;;;2.18;62.02
25855;BME280;13680;49.936;11.344;2023-02-10T10:45:46;98723.94;;;2.29;61.89
25855;BME280;13680;49.936;11.344;2023-02-10T10:48:24;98710.91;;;1.99;60.91
25855;BME280;13680;49.936;11.344;2023-02-10T10:50:54;98707.19;;;1.93;61.71
25855;BME280;13680;49.936;11.344;2023-02-10T10:53:57;98710.50;;;2.02;62.27
25855;BME280;13680;49.936;11.344;2023-02-10T10:56:33;98710.09;;;1.70;61.39
25855;BME280;13680;49.936;11.344;2023-02-10T10:58:59;98715.19;;;2.00;61.22
25855;BME280;13680;49.936;11.344;2023-02-10T11:01:37;98709.31;;;2.05;61.69
25855;BME280;13680;49.936;11.344;2023-02-10T11:04:18;98711.84;;;2.20;61.74
25855;BME280;13680;49.936;11.344;2023-02-10T11:06:47;98706.06;;;2.09;61.01
25855;BME280;13680;49.936;11.344;2023-02-10T11:09:30;98719.41;;;2.29;61.56
25855;BME280;13680;49.936;11.344;2023-02-10T11:14:38;98705.75;;;2.26;61.39
25855;BME280;13680;49.936;11.344;2023-02-10T11:17:18;98701.69;;;2.30;61.27
25855;BME280;13680;49.936;11.344;2023-02-10T11:19:53;98706.34;;;2.28;61.79
25855;BME280;13680;49.936;11.344;2023-02-10T11:22:20;98707.00;;;2.30;61.64
25855;BME280;13680;49.936;11.344;2023-02-10T11:24:55;98707.25;;;2.49;61.32
25855;BME280;13680;49.936;11.344;2023-02-10T11:27:21;98700.09;;;2.42;61.12
25855;BME280;13680;49.936;11.344;2023-02-10T11:29:52;98697.13;;;2.66;60.67
25855;BME280;13680;49.936;11.344;2023-02-10T11:34:51;98691.59;;;2.67;60.44
25855;BME280;13680;49.936;11.344;2023-02-10T11:37:51;98694.41;;;2.59;61.40
25855;BME280;13680;49.936;11.344;2023-02-10T11:40:26;98704.25;;;2.65;61.18
25855;BME280;13680;49.936;11.344;2023-02-10T11:42:54;98699.97;;;2.64;61.98
25855;BME280;13680;49.936;11.344;2023-02-10T11:45:26;98704.66;;;2.62;61.23
25855;BME280;13680;49.936;11.344;2023-02-10T11:48:04;98697.94;;;2.73;60.96
25855;BME280;13680;49.936;11.344;2023-02-10T11:50:33;98695.28;;;2.73;61.12
25855;BME280;13680;49.936;11.344;2023-02-10T11:53:00;98696.69;;;2.55;61.81
25855;BME280;13680;49.936;11.344;2023-02-10T11:55:37;98702.22;;;2.67;60.94
25855;BME280;13680;49.936;11.344;2023-02-10T12:01:20;98691.16;;;2.50;60.41
25855;BME280;13680;49.936;11.344;2023-02-10T12:03:56;98688.28;;;2.52;60.15
25855;BME280;13680;49.936;11.344;2023-02-10T12:07:30;98688.72;;;2.62;60.03
25855;BME280;13680;49.936;11.344;2023-02-10T12:09:37;98700.13;;;2.56;60.44
25855;BME280;13680;49.936;11.344;2023-02-10T12:12:18;98691.50;;;2.40;60.16
25855;BME280;13680;49.936;11.344;2023-02-10T12:15:08;98695.59;;;2.36;61.05
25855;BME280;13680;49.936;11.344;2023-02-10T12:17:42;98688.72;;;2.62;60.19
25855;BME280;13680;49.936;11.344;2023-02-10T12:21:19;98682.19;;;2.65;60.29
25855;BME280;13680;49.936;11.344;2023-02-10T12:23:39;98681.81;;;2.88;59.77
25855;BME280;13680;49.936;11.344;2023-02-10T12:26:17;98680.59;;;2.90;59.14
25855;BME280;13680;49.936;11.344;2023-02-10T12:34:38;98670.00;;;3.04;58.77
25855;BME280;13680;49.936;11.344;2023-02-10T12:37:13;98669.41;;;3.22;58.98
25855;BME280;13680;49.936;11.344;2023-02-10T12:45:19;98677.38;;;3.42;59.03
25855;BME280;13680;49.936;11.344;2023-02-10T12:48:14;98675.13;;;3.46;59.17
25855;BME280;13680;49.936;11.344;2023-02-10T12:50:51;98671.44;;;3.60;58.46
25855;BME280;13680;49.936;11.344;2023-02-10T12:53:28;98674.09;;;3.13;58.67
25855;BME280;13680;49.936;11.344;2023-02-10T12:58:36;98672.47;;;3.05;60.20
25855;BME280;13680;49.936;11.344;2023-02-10T13:01:15;98662.03;;;3.31;59.59
25855;BME280;13680;49.936;11.344;2023-02-10T13:03:48;98668.56;;;3.41;59.97
25855;BME280;13680;49.936;11.344;2023-02-10T13:06:27;98669.41;;;3.42;59.29
25855;BME280;13680;49.936;11.344;2023-02-10T13:09:10;98667.13;;;3.59;59.19
25855;BME280;13680;49.936;11.344;2023-02-10T13:11:44;98665.72;;;3.50;58.81
25855;BME280;13680;49.936;11.344;2023-02-10T13:14:24;98670.81;;;3.51;58.45
25855;BME280;13680;49.936;11.344;2023-02-10T13:16:57;98659.56;;;3.63;58.44
25855;BME280;13680;49.936;11.344;2023-02-10T13:19:33;98652.03;;;3.39;58.65
25855;BME280;13680;49.936;11.344;2023-02-10T13:22:04;98645.47;;;3.42;58.73
25855;BME280;13680;49.936;11.344;2023-02-10T13:24:44;98650.34;;;3.52;58.89
25855;BME280;13680;49.936;11.344;2023-02-10T13:33:07;98642.59;;;3.43;59.48
25855;BME280;13680;49.936;11.344;2023-02-10T13:35:41;98650.75;;;3.55;59.17
25855;BME280;13680;49.936;11.344;2023-02-10T13:38:09;98652.41;;;3.56;59.25
25855;BME280;13680;49.936;11.344;2023-02-10T13:43:26;98656.88;;;3.56;59.96
25855;BME280;13680;49.936;11.344;2023-02-10T13:45:54;98644.59;;;3.68;60.12
25855;BME280;13680;49.936;11.344;2023-02-10T13:48:26;98646.25;;;3.69;60.22
25855;BME280;13680;49.936;11.344;2023-02-10T13:50:57;98642.59;;;3.64;59.44
25855;BME280;13680;49.936;11.344;2023-02-10T13:58:51;98637.81;;;3.72;59.18
25855;BME280;13680;49.936;11.344;2023-02-10T14:01:31;98627.09;;;3.99;58.87
25855;BME280;13680;49.936;11.344;2023-02-10T14:03:57;98624.88;;;3.96;58.77
25855;BME280;13680;49.936;11.344;2023-02-10T14:06:35;98624.38;;;3.54;59.86
25855;BME280;13680;49.936;11.344;2023-02-10T14:09:18;98621.19;;;3.97;59.39
25855;BME280;13680;49.936;11.344;2023-02-10T14:11:44;98631.03;;;3.90;59.69
25855;BME280;13680;49.936;11.344;2023-02-10T14:14:21;98636.22;;;4.30;58.61
25855;BME280;13680;49.936;11.344;2023-02-10T14:16:50;98630.69;;;4.32;58.68